Weather reports worldwide

Advertisment
Andujar, Spain (8347): temperature & dewpoint: 13.08.2019 00:00:00 - 19.08.2019 00:00:00 (CEST)Andujar, Spain (8347): wind speed & gusts: 13.08.2019 00:00:00 - 19.08.2019 00:00:00 (CEST)Andujar, Spain (8347): wind direction: 13.08.2019 00:00:00 - 19.08.2019 00:00:00 (CEST)Andujar, Spain (8347): precipitation: 13.08.2019 00:00:00 - 19.08.2019 00:00:00 (CEST)
Date & Time tt [°C] td [°C] ff [km/h] ff [kn] fx [km/h] fx [kn] dd rr [mm]
19.08.2019 00:00:00 - - - - - - - -
18.08.2019 23:00:00 30,9 14,1 17 9 29 16 W 0,0
18.08.2019 22:00:00 30,7 13,0 9 5 22 12 W 0,0
18.08.2019 21:00:00 32,9 14,0 12 6 33 18 WSW 0,0
18.08.2019 20:00:00 34,7 14,6 16 9 31 17 WSW -
18.08.2019 19:00:00 36,1 15,2 15 8 34 18 WSW 0,0
18.08.2019 18:00:00 36,4 14,9 19 11 32 17 W 0,0
18.08.2019 17:00:00 37,3 15,1 18 10 31 17 WNW 0,0
18.08.2019 16:00:00 37,8 16,1 14 8 28 15 W 0,0
18.08.2019 15:00:00 37,2 16,2 11 6 23 13 W 0,0
18.08.2019 14:00:00 36,2 15,9 9 5 22 12 W -
18.08.2019 13:00:00 34,7 16,5 3 1 16 9 W 0,0
18.08.2019 12:00:00 31,6 15,5 3 2 9 5 NNW 0,0
18.08.2019 11:00:00 31,0 15,4 1 1 6 4 ESE 0,0
18.08.2019 10:00:00 27,6 15,6 2 1 9 5 E 0,0
18.08.2019 09:00:00 22,1 13,2 1 1 4 2 ESE 0,0
18.08.2019 08:00:00 18,3 10,7 0 0 5 3 SE -
18.08.2019 07:00:00 18,8 10,6 0 0 7 4 E 0,0
18.08.2019 06:00:00 19,8 11,0 1 1 3 2 SE 0,0
18.08.2019 05:00:00 20,8 11,2 0 0 3 2 N 0,0
18.08.2019 04:00:00 21,6 10,7 1 1 6 3 NNW 0,0
18.08.2019 03:00:00 22,9 10,7 2 1 9 5 W 0,0
18.08.2019 02:00:00 25,0 10,5 3 2 9 5 NW -
18.08.2019 01:00:00 28,3 11,4 7 4 22 12 W 0,0
18.08.2019 00:00:00 26,1 10,7 3 2 19 10 NW 0,0
17.08.2019 23:00:00 33,1 13,2 13 7 19 10 SW 0,0
17.08.2019 22:00:00 30,5 12,9 4 2 14 8 WNW 0,0
17.08.2019 21:00:00 31,6 13,4 9 5 18 10 WNW 0,0
17.08.2019 20:00:00 34,3 15,2 10 5 23 13 WNW -
17.08.2019 19:00:00 37,1 15,5 11 6 29 16 WNW 0,0
17.08.2019 18:00:00 39,3 16,8 15 8 28 15 W 0,0
17.08.2019 17:00:00 39,1 17,8 9 5 27 14 WNW 0,0
17.08.2019 16:00:00 38,7 17,5 12 6 23 12 WNW 0,0
17.08.2019 15:00:00 38,2 17,6 7 4 18 10 WNW 0,0
17.08.2019 14:00:00 37,9 17,3 3 1 10 5 WNW -
17.08.2019 13:00:00 35,8 16,0 3 2 10 5 ESE 0,0
17.08.2019 12:00:00 32,1 15,1 4 2 14 7 E 0,0
17.08.2019 11:00:00 30,7 16,3 5 3 12 6 ESE 0,0
17.08.2019 10:00:00 28,0 15,6 4 2 8 5 E 0,0
17.08.2019 09:00:00 23,0 14,3 1 1 5 3 ESE 0,0
17.08.2019 08:00:00 20,3 13,3 2 1 5 3 ESE -
17.08.2019 07:00:00 21,0 11,9 1 1 8 4 W 0,0
17.08.2019 06:00:00 20,9 11,8 0 0 3 2 N 0,0
17.08.2019 05:00:00 21,9 11,9 0 0 5 3 N 0,0
17.08.2019 04:00:00 23,2 11,9 3 2 6 3 WSW 0,0
17.08.2019 03:00:00 24,4 12,0 1 1 11 6 N 0,0
17.08.2019 02:00:00 25,7 12,2 6 3 22 12 WNW -
17.08.2019 01:00:00 30,4 13,7 14 8 30 16 SW 0,0
17.08.2019 00:00:00 31,1 13,8 17 9 27 14 WSW 0,0
16.08.2019 23:00:00 28,7 12,6 4 2 16 8 W 0,0
16.08.2019 22:00:00 30,6 13,0 9 5 16 8 W 0,0
16.08.2019 21:00:00 32,6 13,8 8 4 24 13 W 0,0
16.08.2019 20:00:00 35,6 14,8 14 7 24 13 W -
16.08.2019 19:00:00 35,7 15,9 11 6 22 12 WNW 0,0
16.08.2019 18:00:00 38,1 17,5 12 7 22 12 WNW 0,0
16.08.2019 17:00:00 37,9 17,3 10 5 22 12 W 0,0
16.08.2019 16:00:00 37,8 17,7 6 4 23 12 W 0,0
16.08.2019 15:00:00 37,1 18,6 8 4 22 12 WNW 0,0
16.08.2019 14:00:00 35,9 18,9 8 4 19 11 WNW -
16.08.2019 13:00:00 34,7 18,3 6 4 14 8 WNW 0,0
16.08.2019 12:00:00 32,2 16,5 3 1 8 4 W 0,0
16.08.2019 11:00:00 30,2 16,6 1 1 10 5 W 0,0
16.08.2019 10:00:00 27,7 16,9 2 1 6 3 E 0,0
16.08.2019 09:00:00 22,0 14,9 3 2 6 4 ESE 0,0
16.08.2019 08:00:00 20,0 13,0 2 1 5 3 ESE -
16.08.2019 07:00:00 20,9 13,6 0 0 2 1 WSW 0,0
16.08.2019 06:00:00 21,0 13,7 0 0 3 2 N 0,0
16.08.2019 05:00:00 21,0 14,2 2 1 5 3 WNW 0,0
16.08.2019 04:00:00 22,1 14,7 3 2 7 4 WNW 0,0
16.08.2019 03:00:00 24,7 13,6 4 2 13 7 NW 0,0
16.08.2019 02:00:00 24,4 11,4 0 0 7 4 ESE -
16.08.2019 01:00:00 24,4 11,0 6 3 18 10 NW 0,0
16.08.2019 00:00:00 29,8 12,3 13 7 23 12 WSW 0,0
15.08.2019 23:00:00 26,5 10,6 4 2 16 9 NW 0,0
15.08.2019 22:00:00 31,7 10,4 10 6 16 9 WSW 0,0
15.08.2019 21:00:00 33,1 11,6 8 5 14 8 WSW 0,0
15.08.2019 20:00:00 34,9 13,7 8 4 14 7 W -
15.08.2019 19:00:00 37,9 13,2 6 4 17 9 SW 0,0
15.08.2019 18:00:00 38,0 13,3 4 2 19 10 WSW 0,0
15.08.2019 17:00:00 39,7 14,7 5 3 18 10 SW 0,0
15.08.2019 16:00:00 38,3 14,2 6 4 21 12 WSW 0,0
15.08.2019 15:00:00 38,6 15,7 2 1 10 6 NNW 0,0
15.08.2019 14:00:00 35,4 17,1 4 2 9 5 WNW -
15.08.2019 13:00:00 33,7 18,6 4 2 9 5 WNW 0,0
15.08.2019 12:00:00 31,0 16,9 1 1 8 5 N 0,0
15.08.2019 11:00:00 28,4 16,0 1 1 10 5 NE 0,0
15.08.2019 10:00:00 25,6 14,4 5 3 9 5 ESE 0,0
15.08.2019 09:00:00 21,0 12,4 1 1 6 3 E 0,0
15.08.2019 08:00:00 17,6 10,7 0 0 3 2 N -
15.08.2019 07:00:00 17,3 9,7 2 1 6 3 NW 0,0
15.08.2019 06:00:00 18,1 9,2 1 1 3 2 ESE 0,0
15.08.2019 05:00:00 18,1 7,8 0 0 2 1 W 0,0
15.08.2019 04:00:00 19,2 7,9 0 0 6 4 SSE 0,0
15.08.2019 03:00:00 20,9 9,2 1 1 6 3 SW 0,0
15.08.2019 02:00:00 21,8 8,7 2 1 5 3 ESE -
15.08.2019 01:00:00 22,4 8,9 1 1 7 4 SW 0,0
15.08.2019 00:00:00 24,4 8,0 4 2 9 5 E 0,0
14.08.2019 23:00:00 25,9 8,0 3 1 7 4 W 0,0
14.08.2019 22:00:00 28,4 7,1 3 2 10 5 SW 0,0
14.08.2019 21:00:00 32,3 9,2 6 3 10 6 SW 0,0
14.08.2019 20:00:00 33,8 10,4 8 5 15 8 W -
14.08.2019 19:00:00 35,6 11,9 7 4 20 11 SW 0,0
14.08.2019 18:00:00 37,1 12,5 3 2 23 12 WSW 0,0
14.08.2019 17:00:00 37,4 12,1 4 2 21 11 SSW 0,0
14.08.2019 16:00:00 36,0 13,5 6 3 16 9 WSW 0,0
14.08.2019 15:00:00 36,3 15,9 6 3 15 8 W 0,0
14.08.2019 14:00:00 32,7 16,5 6 3 14 8 W -
14.08.2019 13:00:00 31,4 17,3 2 1 10 6 NNW 0,0
14.08.2019 12:00:00 29,1 17,0 0 0 10 5 SSE 0,0
14.08.2019 11:00:00 26,9 16,5 2 1 7 4 NW 0,0
14.08.2019 10:00:00 25,0 13,9 3 2 7 4 ESE 0,0
14.08.2019 09:00:00 20,2 12,2 3 2 5 3 ESE 0,0
14.08.2019 08:00:00 18,1 10,5 1 1 5 3 ESE -
14.08.2019 07:00:00 19,0 10,3 3 1 9 5 WNW 0,0
14.08.2019 06:00:00 19,2 11,0 5 3 7 4 W 0,0
14.08.2019 05:00:00 18,9 12,0 1 1 6 3 NW 0,0
14.08.2019 04:00:00 18,9 12,0 4 2 6 3 W 0,0
14.08.2019 03:00:00 20,6 11,5 0 0 6 4 ESE 0,0
14.08.2019 02:00:00 21,4 10,6 0 0 6 3 NW -
14.08.2019 01:00:00 22,2 9,4 0 0 11 6 SW 0,0
14.08.2019 00:00:00 22,6 9,4 7 4 11 6 WNW 0,0
13.08.2019 23:00:00 24,7 6,9 0 0 5 3 N 0,0
13.08.2019 22:00:00 27,2 7,6 2 1 8 5 NW 0,0
13.08.2019 21:00:00 29,6 7,5 4 2 6 3 SW 0,0
13.08.2019 20:00:00 31,8 12,1 7 4 10 6 W -
13.08.2019 19:00:00 33,9 10,5 7 4 19 11 W 0,0
13.08.2019 18:00:00 34,5 9,7 6 4 15 8 WSW 0,0
13.08.2019 17:00:00 34,9 10,0 5 3 20 11 WNW 0,0
13.08.2019 16:00:00 34,9 9,3 1 1 25 14 SW 0,0
13.08.2019 15:00:00 34,7 9,9 3 2 16 9 W 0,0
13.08.2019 14:00:00 32,8 10,2 6 4 17 9 W -
13.08.2019 13:00:00 31,1 10,4 6 4 16 8 WNW 0,0
13.08.2019 12:00:00 30,1 11,1 3 1 6 4 W 0,0
13.08.2019 11:00:00 27,2 8,6 1 1 8 5 ESE 0,0
13.08.2019 10:00:00 23,0 8,3 1 0 5 3 NE 0,0
13.08.2019 09:00:00 18,6 7,7 1 0 6 3 ESE 0,0
13.08.2019 08:00:00 14,0 4,6 2 1 4 2 W -
13.08.2019 07:00:00 15,1 3,9 0 0 4 2 N 0,0
13.08.2019 06:00:00 16,5 3,6 2 1 8 4 SE 0,0
13.08.2019 05:00:00 16,5 3,6 0 0 3 1 SW 0,0
13.08.2019 04:00:00 17,9 3,4 0 0 5 3 ESE 0,0
13.08.2019 03:00:00 20,2 3,4 0 0 5 3 ESE 0,0
13.08.2019 02:00:00 21,6 2,8 1 1 4 2 ESE -
13.08.2019 01:00:00 23,1 2,6 4 2 12 6 SSE 0,0
13.08.2019 00:00:00 24,6 2,7 5 3 16 9 ESE 0,0

tt = temperature
td = dewpoint
ff = wind speed
fx = gusts
dd = wind direction
rr = precipitation

Next stations